Time;durP1;ratioP1;P1;durP2;ratioP2;P2;SDS_P1;SDS_P2;PMS_P1;PMS_P2;Temp;Humidity;BMP_temperature;BMP_pressure;BME280_temperature;BME280_humidity;BME280_pressure;Samples;Min_cycle;Max_cycle;Signal;HPM_P1;HPM_P2
2022/07/02 00:01:04;;;;;;;2.07;1.57;;;;;;;;;;4970913;28;20287;-71
2022/07/02 00:03:36;;;;;;;2.17;1.60;;;;;;;;;;4974048;28;20208;-71
2022/07/02 00:06:03;;;;;;;1.80;1.40;;;;;;;;;;4971803;28;20701;-71
2022/07/02 00:08:29;;;;;;;2.17;1.53;;;;;;;;;;4971204;28;20184;-71
2022/07/02 00:10:56;;;;;;;1.80;1.50;;;;;;;;;;4970600;28;20247;-71
2022/07/02 00:13:23;;;;;;;1.97;1.53;;;;;;;;;;4970709;28;20181;-71
2022/07/02 00:15:50;;;;;;;1.90;1.70;;;;;;;;;;4965169;28;20271;-71
2022/07/02 00:18:18;;;;;;;3.90;2.03;;;;;;;;;;4969442;28;20600;-71
2022/07/02 00:20:45;;;;;;;2.53;1.60;;;;;;;;;;4970287;28;20277;-71
2022/07/02 00:23:11;;;;;;;2.97;1.60;;;;;;;;;;4970133;28;20675;-71
2022/07/02 00:25:53;;;;;;;2.40;1.80;;;;;;;;;;4948633;28;20225;-71
2022/07/02 00:28:20;;;;;;;1.93;1.83;;;;;;;;;;4971557;28;20188;-71
2022/07/02 00:30:47;;;;;;;3.20;2.00;;;;;;;;;;4971655;28;20279;-71
2022/07/02 00:33:14;;;;;;;2.13;1.63;;;;;;;;;;4956738;28;20615;-71
2022/07/02 00:35:41;;;;;;;2.40;1.70;;;;;;;;;;4971500;28;20195;-71
2022/07/02 00:38:07;;;;;;;4.53;2.03;;;;;;;;;;4970508;28;20204;-71
2022/07/02 00:40:34;;;;;;;2.87;1.80;;;;;;;;;;4970242;28;20295;-71
2022/07/02 00:43:00;;;;;;;2.00;1.80;;;;;;;;;;4961723;28;20687;-71
2022/07/02 00:45:27;;;;;;;2.43;1.80;;;;;;;;;;4966572;28;20188;-71
2022/07/02 00:47:56;;;;;;;2.00;1.80;;;;;;;;;;4968689;28;20656;-71
2022/07/02 00:50:23;;;;;;;2.20;1.80;;;;;;;;;;4971357;28;20193;-71
2022/07/02 00:52:49;;;;;;;2.77;2.10;;;;;;;;;;4969680;28;20200;-70
2022/07/02 00:55:16;;;;;;;2.10;1.83;;;;;;;;;;4971150;28;20704;-70
2022/07/02 00:57:47;;;;;;;3.10;2.00;;;;;;;;;;4971246;28;20818;-71
2022/07/02 01:00:17;;;;;;;3.17;2.00;;;;;;;;;;4967214;28;20316;-70
2022/07/02 01:02:44;;;;;;;3.85;1.88;;;;;;;;;;4970180;28;20433;-71
2022/07/02 01:05:10;;;;;;;2.37;1.70;;;;;;;;;;4968107;28;20653;-71
2022/07/02 01:07:37;;;;;;;1.90;1.80;;;;;;;;;;4970118;28;20197;-71
2022/07/02 01:10:19;;;;;;;3.70;1.93;;;;;;;;;;4968326;28;20730;-71
2022/07/02 01:12:46;;;;;;;2.23;1.80;;;;;;;;;;4976218;28;20286;-71
2022/07/02 01:15:13;;;;;;;3.67;1.80;;;;;;;;;;4977456;28;20192;-71
2022/07/02 01:17:39;;;;;;;2.33;1.80;;;;;;;;;;4971278;28;20234;-71
2022/07/02 01:20:06;;;;;;;1.90;1.70;;;;;;;;;;4975430;28;20184;-71
2022/07/02 01:22:33;;;;;;;2.50;1.90;;;;;;;;;;4975027;28;20246;-71
2022/07/02 01:25:00;;;;;;;2.07;1.90;;;;;;;;;;4976257;28;20180;-71
2022/07/02 01:27:26;;;;;;;2.47;1.80;;;;;;;;;;4974367;28;20276;-71
2022/07/02 01:29:52;;;;;;;2.13;1.80;;;;;;;;;;4974156;28;20215;-71
2022/07/02 01:32:19;;;;;;;2.20;2.00;;;;;;;;;;4975325;28;20218;-71
2022/07/02 01:34:46;;;;;;;2.23;2.00;;;;;;;;;;4975644;28;20187;-71
2022/07/02 01:37:16;;;;;;;3.27;2.10;;;;;;;;;;4974111;28;20204;-71
2022/07/02 01:39:44;;;;;;;3.67;2.40;;;;;;;;;;4975028;28;20180;-71
2022/07/02 01:42:10;;;;;;;2.50;2.20;;;;;;;;;;4975948;28;21007;-71
2022/07/02 01:44:38;;;;;;;4.40;2.70;;;;;;;;;;4975753;28;20250;-71
2022/07/02 01:47:05;;;;;;;3.77;2.90;;;;;;;;;;4975115;28;20192;-71
2022/07/02 01:49:32;;;;;;;3.67;3.30;;;;;;;;;;4971713;28;20188;-71
2022/07/02 01:51:58;;;;;;;5.07;2.90;;;;;;;;;;4973901;28;20698;-71
2022/07/02 01:54:24;;;;;;;4.53;2.90;;;;;;;;;;4975886;28;20722;-71
2022/07/02 01:56:50;;;;;;;3.53;2.80;;;;;;;;;;4976081;28;20176;-71
2022/07/02 01:59:16;;;;;;;4.83;3.30;;;;;;;;;;4976596;28;20192;-71
2022/07/02 02:01:43;;;;;;;3.07;2.63;;;;;;;;;;4972691;28;20290;-71
2022/07/02 02:04:09;;;;;;;4.03;2.97;;;;;;;;;;4975495;28;20212;-71
2022/07/02 02:06:36;;;;;;;3.13;2.60;;;;;;;;;;4976592;28;20235;-71
2022/07/02 02:09:03;;;;;;;3.07;2.70;;;;;;;;;;4974984;28;20185;-71
2022/07/02 02:11:29;;;;;;;2.60;2.40;;;;;;;;;;4976683;28;20192;-71
2022/07/02 02:13:58;;;;;;;3.87;2.60;;;;;;;;;;4973613;28;20208;-71
2022/07/02 02:16:25;;;;;;;2.70;2.50;;;;;;;;;;4975559;28;20191;-71
2022/07/02 02:18:51;;;;;;;3.10;2.80;;;;;;;;;;4974771;28;20580;-71
2022/07/02 02:21:18;;;;;;;6.03;3.00;;;;;;;;;;4969851;28;20207;-71
2022/07/02 02:23:44;;;;;;;4.10;2.90;;;;;;;;;;4972511;28;20181;-71
2022/07/02 02:26:10;;;;;;;2.90;2.60;;;;;;;;;;4971973;28;20661;-71
2022/07/02 02:28:36;;;;;;;3.77;3.10;;;;;;;;;;4973077;28;20823;-71
2022/07/02 02:31:03;;;;;;;4.63;3.93;;;;;;;;;;4973554;28;20224;-71
2022/07/02 02:33:29;;;;;;;4.40;3.67;;;;;;;;;;4972793;28;20171;-71
2022/07/02 02:35:55;;;;;;;4.07;3.40;;;;;;;;;;4972799;28;20295;-71
2022/07/02 02:38:21;;;;;;;4.40;3.30;;;;;;;;;;4973350;28;20200;-71
2022/07/02 02:40:48;;;;;;;4.90;3.33;;;;;;;;;;4966681;28;20201;-71
2022/07/02 02:43:14;;;;;;;5.90;3.40;;;;;;;;;;4966302;28;20531;-71
2022/07/02 02:45:40;;;;;;;3.77;3.40;;;;;;;;;;4973911;28;20239;-71
2022/07/02 02:48:06;;;;;;;4.80;3.20;;;;;;;;;;4973337;28;20641;-71
2022/07/02 02:50:32;;;;;;;3.90;3.50;;;;;;;;;;4973018;28;20877;-71
2022/07/02 02:52:58;;;;;;;4.13;3.77;;;;;;;;;;4972937;28;20247;-71
2022/07/02 02:55:24;;;;;;;6.20;3.70;;;;;;;;;;4973295;28;20215;-71
2022/07/02 02:57:52;;;;;;;3.50;3.20;;;;;;;;;;4972694;28;20296;-71
2022/07/02 03:00:18;;;;;;;3.47;3.10;;;;;;;;;;4972984;28;20822;-71
2022/07/02 03:02:44;;;;;;;3.53;3.23;;;;;;;;;;4973139;28;20216;-71
2022/07/02 03:05:10;;;;;;;4.07;3.50;;;;;;;;;;4972708;28;20172;-71
2022/07/02 03:07:36;;;;;;;4.13;3.53;;;;;;;;;;4973324;28;20184;-71
2022/07/02 03:10:03;;;;;;;6.83;3.60;;;;;;;;;;4970760;28;20196;-71
2022/07/02 03:12:29;;;;;;;4.87;3.30;;;;;;;;;;4972834;28;20204;-71
2022/07/02 03:14:55;;;;;;;4.23;3.30;;;;;;;;;;4964898;28;20205;-71
2022/07/02 03:17:22;;;;;;;4.97;4.00;;;;;;;;;;4971172;28;20295;-71
2022/07/02 03:19:48;;;;;;;3.90;3.47;;;;;;;;;;4972618;28;20635;-71
2022/07/02 03:22:14;;;;;;;4.07;3.07;;;;;;;;;;4976368;28;20215;-71
2022/07/02 03:24:40;;;;;;;4.30;3.40;;;;;;;;;;4972463;28;20629;-71
2022/07/02 03:27:06;;;;;;;3.83;3.33;;;;;;;;;;4959018;28;20204;-71
2022/07/02 03:29:33;;;;;;;5.40;3.70;;;;;;;;;;4971988;28;20192;-71
2022/07/02 03:31:59;;;;;;;3.60;3.27;;;;;;;;;;4972112;28;20219;-71
2022/07/02 03:34:25;;;;;;;3.43;3.10;;;;;;;;;;4971886;28;20675;-71
2022/07/02 03:36:51;;;;;;;4.10;3.10;;;;;;;;;;4972050;28;20664;-71
2022/07/02 03:39:17;;;;;;;3.70;2.90;;;;;;;;;;4971682;28;20186;-71
2022/07/02 03:41:43;;;;;;;3.83;2.90;;;;;;;;;;4971486;28;20306;-71
2022/07/02 03:44:09;;;;;;;3.57;2.93;;;;;;;;;;4960273;28;20264;-71
2022/07/02 03:46:35;;;;;;;4.03;3.40;;;;;;;;;;4972100;28;20283;-71
2022/07/02 03:49:02;;;;;;;5.13;3.40;;;;;;;;;;4971421;28;20185;-71
2022/07/02 03:51:28;;;;;;;5.27;3.50;;;;;;;;;;4971121;28;20231;-71
2022/07/02 03:53:54;;;;;;;4.97;3.10;;;;;;;;;;4971121;28;20562;-71
2022/07/02 03:56:20;;;;;;;3.60;3.30;;;;;;;;;;4960979;28;20199;-71
2022/07/02 03:58:46;;;;;;;5.13;3.10;;;;;;;;;;4969776;28;20767;-71
2022/07/02 04:01:12;;;;;;;5.27;3.10;;;;;;;;;;4972662;28;20204;-71
2022/07/02 04:03:38;;;;;;;3.63;2.93;;;;;;;;;;4971699;28;20177;-71
2022/07/02 04:06:05;;;;;;;3.77;3.20;;;;;;;;;;4963887;28;20240;-71
2022/07/02 04:08:31;;;;;;;4.20;3.03;;;;;;;;;;4971577;28;22457;-71
2022/07/02 04:10:57;;;;;;;5.67;3.00;;;;;;;;;;4970633;28;20888;-71
2022/07/02 04:13:23;;;;;;;3.73;2.97;;;;;;;;;;4972020;28;20190;-71
2022/07/02 04:15:49;;;;;;;3.43;3.10;;;;;;;;;;4969604;28;20192;-71
2022/07/02 04:18:15;;;;;;;3.23;2.90;;;;;;;;;;4970472;28;20236;-71
2022/07/02 04:20:42;;;;;;;3.97;2.97;;;;;;;;;;4973700;28;20184;-71
2022/07/02 04:23:08;;;;;;;3.00;2.70;;;;;;;;;;4971278;28;20196;-71
2022/07/02 04:25:34;;;;;;;3.27;2.97;;;;;;;;;;4971142;28;20645;-71
2022/07/02 04:28:00;;;;;;;4.20;3.10;;;;;;;;;;4969063;28;20220;-71
2022/07/02 04:30:26;;;;;;;3.23;2.33;;;;;;;;;;4970469;28;20189;-71
2022/07/02 04:32:53;;;;;;;4.67;2.57;;;;;;;;;;4972146;28;20184;-71
2022/07/02 04:35:19;;;;;;;2.50;2.30;;;;;;;;;;4968731;28;20188;-71
2022/07/02 04:37:45;;;;;;;2.30;2.10;;;;;;;;;;4971142;28;20642;-71
2022/07/02 04:40:12;;;;;;;4.37;2.70;;;;;;;;;;4970242;28;20176;-71
2022/07/02 04:42:38;;;;;;;3.43;2.50;;;;;;;;;;4971197;28;20199;-71
2022/07/02 04:45:05;;;;;;;2.73;2.13;;;;;;;;;;4971331;28;20184;-71
2022/07/02 04:47:32;;;;;;;2.90;2.00;;;;;;;;;;4968040;28;20184;-71
2022/07/02 04:49:58;;;;;;;3.33;2.30;;;;;;;;;;4968928;28;20659;-71
2022/07/02 04:52:24;;;;;;;5.53;2.57;;;;;;;;;;4951119;28;20564;-71
2022/07/02 04:54:50;;;;;;;4.63;2.60;;;;;;;;;;4967992;28;20193;-71
2022/07/02 04:57:17;;;;;;;5.07;2.90;;;;;;;;;;4963698;28;20291;-71
2022/07/02 04:59:44;;;;;;;3.30;2.63;;;;;;;;;;4971024;28;20276;-71
2022/07/02 05:02:11;;;;;;;3.23;2.27;;;;;;;;;;4964038;28;20204;-71
2022/07/02 05:04:37;;;;;;;3.53;2.50;;;;;;;;;;4966295;28;20185;-71
2022/07/02 05:07:03;;;;;;;2.83;2.27;;;;;;;;;;4971086;28;20180;-71
2022/07/02 05:09:29;;;;;;;2.80;2.20;;;;;;;;;;4964148;28;21084;-71
2022/07/02 05:11:56;;;;;;;2.40;2.20;;;;;;;;;;4971754;28;20872;-71
2022/07/02 05:14:22;;;;;;;3.90;2.23;;;;;;;;;;4970783;28;20220;-71
2022/07/02 05:16:48;;;;;;;4.30;2.20;;;;;;;;;;4970168;28;20311;-71
2022/07/02 05:19:15;;;;;;;3.67;2.07;;;;;;;;;;4960926;28;20652;-71
2022/07/02 05:21:43;;;;;;;2.87;2.00;;;;;;;;;;4968633;28;20296;-71
2022/07/02 05:24:10;;;;;;;3.17;2.20;;;;;;;;;;4963911;28;20184;-71
2022/07/02 05:26:36;;;;;;;3.07;2.23;;;;;;;;;;4971073;28;20258;-71
2022/07/02 05:29:03;;;;;;;3.40;2.20;;;;;;;;;;4970606;28;20294;-71
2022/07/02 05:31:29;;;;;;;2.40;2.10;;;;;;;;;;4971157;28;20707;-71
2022/07/02 05:33:55;;;;;;;2.40;2.00;;;;;;;;;;4970277;28;20522;-71
2022/07/02 05:36:21;;;;;;;2.97;2.10;;;;;;;;;;4969215;28;20193;-71
2022/07/02 05:38:47;;;;;;;3.00;2.20;;;;;;;;;;4963825;28;20714;-71
2022/07/02 05:41:13;;;;;;;3.73;2.57;;;;;;;;;;4971059;28;20207;-71
2022/07/02 05:43:40;;;;;;;3.93;2.40;;;;;;;;;;4970938;28;20192;-71
2022/07/02 05:46:06;;;;;;;3.20;2.50;;;;;;;;;;4971302;28;20177;-72
2022/07/02 05:48:35;;;;;;;3.33;2.40;;;;;;;;;;4966897;28;20188;-71
2022/07/02 05:51:01;;;;;;;3.10;2.53;;;;;;;;;;4964715;28;20815;-71
2022/07/02 05:53:27;;;;;;;3.13;2.50;;;;;;;;;;4969115;28;20195;-71
2022/07/02 05:55:53;;;;;;;5.10;3.30;;;;;;;;;;4968511;28;20723;-72
2022/07/02 05:58:20;;;;;;;6.33;3.33;;;;;;;;;;4971922;28;20212;-71
2022/07/02 06:00:46;;;;;;;3.77;3.00;;;;;;;;;;4973858;28;20597;-72
2022/07/02 06:03:12;;;;;;;3.60;3.30;;;;;;;;;;4972828;28;20208;-72
2022/07/02 06:08:23;;;;;;;3.90;3.30;;;;;;;;;;4977719;28;20888;-72
2022/07/02 06:10:49;;;;;;;3.80;3.40;;;;;;;;;;4950179;28;20288;-72
2022/07/02 06:13:16;;;;;;;3.90;2.40;;;;;;;;;;4972919;28;20181;-72
2022/07/02 06:15:42;;;;;;;2.40;1.90;;;;;;;;;;4971311;28;20708;-71
2022/07/02 06:18:09;;;;;;;2.63;2.03;;;;;;;;;;4970094;28;20208;-70
2022/07/02 06:20:35;;;;;;;2.13;1.90;;;;;;;;;;4973161;28;20180;-72
2022/07/02 06:23:01;;;;;;;2.43;2.20;;;;;;;;;;4975343;28;20188;-71
2022/07/02 06:25:27;;;;;;;3.03;2.10;;;;;;;;;;4973731;28;20184;-71
2022/07/02 06:27:54;;;;;;;3.23;2.00;;;;;;;;;;4973647;28;20184;-71
2022/07/02 06:30:20;;;;;;;4.40;2.20;;;;;;;;;;4971071;28;20203;-71
2022/07/02 06:32:48;;;;;;;4.03;2.57;;;;;;;;;;4971213;28;20236;-75
2022/07/02 06:35:14;;;;;;;3.03;2.03;;;;;;;;;;4974435;28;20185;-75
2022/07/02 06:37:41;;;;;;;3.40;2.27;;;;;;;;;;4970971;28;20840;-75
2022/07/02 06:40:07;;;;;;;3.53;2.00;;;;;;;;;;4973637;28;20271;-75
2022/07/02 06:42:33;;;;;;;3.87;2.00;;;;;;;;;;4973495;28;20197;-75
2022/07/02 06:45:00;;;;;;;2.13;1.83;;;;;;;;;;4981376;28;20267;-75
2022/07/02 06:47:28;;;;;;;4.00;1.97;;;;;;;;;;4973398;28;20183;-74
2022/07/02 06:49:55;;;;;;;2.77;2.03;;;;;;;;;;4971909;28;20190;-74
2022/07/02 06:52:21;;;;;;;2.90;1.87;;;;;;;;;;4974105;28;20657;-75
2022/07/02 06:54:47;;;;;;;2.30;2.10;;;;;;;;;;4974321;28;20236;-75
2022/07/02 06:57:13;;;;;;;2.30;1.97;;;;;;;;;;4974415;28;20665;-75
2022/07/02 06:59:40;;;;;;;4.60;2.10;;;;;;;;;;4972805;28;20185;-75
2022/07/02 07:02:06;;;;;;;4.33;2.30;;;;;;;;;;4973712;28;20200;-75
2022/07/02 07:04:34;;;;;;;3.57;2.27;;;;;;;;;;4972789;28;20549;-75
2022/07/02 07:07:04;;;;;;;6.90;2.30;;;;;;;;;;4957637;28;20181;-75
2022/07/02 07:09:31;;;;;;;2.47;2.23;;;;;;;;;;4965521;28;20177;-75
2022/07/02 07:11:57;;;;;;;3.90;2.50;;;;;;;;;;4973616;28;20208;-75
2022/07/02 07:14:24;;;;;;;3.60;2.20;;;;;;;;;;4966247;28;20208;-75
2022/07/02 07:16:50;;;;;;;3.47;2.30;;;;;;;;;;4980615;28;20191;-75
2022/07/02 07:19:16;;;;;;;3.73;2.30;;;;;;;;;;4973535;28;20189;-75
2022/07/02 07:21:43;;;;;;;3.77;2.50;;;;;;;;;;4973912;28;20212;-75
2022/07/02 07:24:09;;;;;;;2.67;2.30;;;;;;;;;;4971867;28;20232;-75
2022/07/02 07:26:36;;;;;;;3.17;2.17;;;;;;;;;;4973840;28;20185;-75
2022/07/02 07:29:03;;;;;;;4.67;2.87;;;;;;;;;;4972711;28;20195;-75
2022/07/02 07:31:29;;;;;;;3.90;2.90;;;;;;;;;;4972466;28;20241;-75
2022/07/02 07:33:56;;;;;;;3.80;3.30;;;;;;;;;;4973564;28;20231;-76
2022/07/02 07:36:23;;;;;;;4.00;2.50;;;;;;;;;;4973826;28;20231;-75
2022/07/02 07:38:50;;;;;;;4.93;2.90;;;;;;;;;;4972448;28;20466;-77
2022/07/02 07:41:17;;;;;;;4.20;2.30;;;;;;;;;;4955737;28;20200;-77
2022/07/02 07:43:43;;;;;;;4.90;2.33;;;;;;;;;;4973015;28;20181;-77
2022/07/02 07:46:09;;;;;;;2.60;2.07;;;;;;;;;;4971640;28;20219;-76
2022/07/02 07:48:35;;;;;;;3.53;2.10;;;;;;;;;;4970337;28;20180;-77
2022/07/02 07:51:01;;;;;;;3.07;2.20;;;;;;;;;;4971951;28;20278;-74
2022/07/02 07:53:28;;;;;;;2.40;2.00;;;;;;;;;;4964082;28;20176;-76
2022/07/02 07:55:54;;;;;;;3.17;2.00;;;;;;;;;;4972677;28;20184;-76
2022/07/02 07:58:21;;;;;;;3.30;1.97;;;;;;;;;;4971771;28;20218;-74
2022/07/02 08:00:47;;;;;;;2.80;2.03;;;;;;;;;;4966347;28;20184;-76
2022/07/02 08:03:14;;;;;;;2.47;1.77;;;;;;;;;;4969921;28;20280;-75
2022/07/02 08:05:41;;;;;;;2.77;2.07;;;;;;;;;;4968809;28;20566;-78
2022/07/02 08:08:07;;;;;;;4.10;1.97;;;;;;;;;;4974947;28;20196;-76
2022/07/02 08:10:34;;;;;;;3.40;1.93;;;;;;;;;;4971055;28;20184;-77
2022/07/02 08:13:00;;;;;;;1.93;1.60;;;;;;;;;;4971782;28;20625;-76
2022/07/02 08:15:27;;;;;;;2.37;1.80;;;;;;;;;;4971151;28;20188;-76
2022/07/02 08:17:53;;;;;;;2.90;1.60;;;;;;;;;;4967889;28;20197;-76
2022/07/02 08:20:20;;;;;;;3.60;1.50;;;;;;;;;;4969688;28;20195;-77
2022/07/02 08:22:47;;;;;;;2.53;1.50;;;;;;;;;;4964256;28;20339;-83
2022/07/02 08:25:16;;;;;;;4.47;1.73;;;;;;;;;;4967453;28;20209;-77
2022/07/02 08:27:43;;;;;;;1.40;1.30;;;;;;;;;;4971562;28;20283;-80
2022/07/02 08:30:09;;;;;;;3.43;1.40;;;;;;;;;;4972168;28;20192;-78
2022/07/02 08:32:35;;;;;;;1.80;1.50;;;;;;;;;;4967568;28;20197;-80
2022/07/02 08:35:03;;;;;;;2.10;1.47;;;;;;;;;;4967284;28;20180;-79
2022/07/02 08:37:30;;;;;;;3.00;1.50;;;;;;;;;;4940323;28;20669;-80
2022/07/02 08:39:56;;;;;;;1.93;1.30;;;;;;;;;;4963899;28;20185;-79
2022/07/02 08:42:26;;;;;;;3.67;1.40;;;;;;;;;;4964060;28;20208;-80
2022/07/02 08:44:53;;;;;;;4.33;1.40;;;;;;;;;;4956634;28;20287;-80
2022/07/02 08:47:20;;;;;;;2.40;1.40;;;;;;;;;;4963494;28;20208;-80
2022/07/02 08:49:47;;;;;;;3.10;1.30;;;;;;;;;;4971987;28;20631;-80
2022/07/02 08:52:20;;;;;;;2.37;1.37;;;;;;;;;;4973693;28;20660;-80
2022/07/02 08:54:46;;;;;;;1.97;1.30;;;;;;;;;;4958479;28;20216;-80
2022/07/02 08:57:47;;;;;;;1.27;1.17;;;;;;;;;;4973356;28;20181;-80
2022/07/02 09:00:13;;;;;;;14.13;1.83;;;;;;;;;;4962554;28;20188;-80
2022/07/02 09:02:40;;;;;;;3.33;1.57;;;;;;;;;;4972027;28;21017;-80
2022/07/02 09:05:07;;;;;;;1.30;1.20;;;;;;;;;;4980864;28;20255;-81
2022/07/02 09:07:35;;;;;;;2.83;1.30;;;;;;;;;;4977204;28;20182;-80
2022/07/02 09:10:02;;;;;;;1.83;1.60;;;;;;;;;;4977628;28;20212;-80
2022/07/02 09:12:29;;;;;;;4.43;1.53;;;;;;;;;;4974849;28;20242;-80
2022/07/02 09:14:55;;;;;;;3.63;1.70;;;;;;;;;;4955981;28;20247;-81
2022/07/02 09:17:21;;;;;;;1.60;1.50;;;;;;;;;;4973378;28;20683;-80
2022/07/02 09:19:47;;;;;;;1.13;1.03;;;;;;;;;;4972434;28;20195;-81
2022/07/02 09:22:14;;;;;;;1.47;1.20;;;;;;;;;;4973919;28;20683;-81
2022/07/02 09:24:45;;;;;;;1.53;1.20;;;;;;;;;;4971735;28;20296;-81
2022/07/02 09:27:12;;;;;;;1.43;1.10;;;;;;;;;;4975893;28;20656;-81
2022/07/02 09:29:41;;;;;;;3.57;1.17;;;;;;;;;;4975984;28;20188;-81
2022/07/02 09:32:08;;;;;;;1.37;1.20;;;;;;;;;;4977979;28;20590;-81
2022/07/02 09:34:34;;;;;;;1.97;1.17;;;;;;;;;;4978454;28;20177;-81
2022/07/02 09:37:00;;;;;;;0.97;0.97;;;;;;;;;;4960541;28;20209;-81
2022/07/02 09:39:30;;;;;;;1.20;1.07;;;;;;;;;;4978478;28;20184;-80
2022/07/02 09:41:57;;;;;;;1.60;1.07;;;;;;;;;;4978635;28;20227;-81
2022/07/02 09:44:25;;;;;;;2.27;1.00;;;;;;;;;;4978247;28;20185;-81
2022/07/02 09:46:51;;;;;;;1.37;0.90;;;;;;;;;;4975762;28;20671;-81
2022/07/02 09:49:17;;;;;;;1.13;1.00;;;;;;;;;;4985589;28;20197;-81
2022/07/02 09:51:48;;;;;;;1.87;1.00;;;;;;;;;;4975770;28;20213;-81
2022/07/02 09:54:18;;;;;;;1.43;0.87;;;;;;;;;;4976894;28;20184;-81
2022/07/02 09:56:50;;;;;;;5.67;1.20;;;;;;;;;;4977003;28;20656;-81
2022/07/02 09:59:16;;;;;;;4.53;0.90;;;;;;;;;;4964987;28;20686;-81
2022/07/02 10:01:43;;;;;;;1.60;0.83;;;;;;;;;;4956924;29;20194;-81
2022/07/02 10:04:10;;;;;;;1.73;0.90;;;;;;;;;;4968673;28;20701;-80
2022/07/02 10:06:37;;;;;;;0.80;0.80;;;;;;;;;;4976265;28;20212;-80
2022/07/02 10:09:03;;;;;;;6.00;1.00;;;;;;;;;;4975844;28;20181;-80
2022/07/02 10:11:30;;;;;;;6.57;1.00;;;;;;;;;;4971394;28;20205;-80
2022/07/02 10:13:57;;;;;;;3.53;0.90;;;;;;;;;;4977715;28;20668;-79
2022/07/02 10:16:23;;;;;;;2.57;0.90;;;;;;;;;;4979553;28;20673;-80
2022/07/02 10:18:49;;;;;;;9.70;1.40;;;;;;;;;;4973489;28;20214;-79
2022/07/02 10:21:16;;;;;;;2.50;0.80;;;;;;;;;;4978260;28;20213;-79
2022/07/02 10:23:46;;;;;;;8.17;1.30;;;;;;;;;;4975776;28;20181;-79
2022/07/02 10:26:13;;;;;;;1.00;0.90;;;;;;;;;;4974923;28;20197;-79
2022/07/02 10:28:39;;;;;;;8.30;1.57;;;;;;;;;;4973768;28;20200;-79
2022/07/02 10:31:11;;;;;;;2.77;1.10;;;;;;;;;;4974483;28;20225;-79
2022/07/02 10:33:47;;;;;;;3.13;1.00;;;;;;;;;;4968825;28;20177;-79
2022/07/02 10:36:14;;;;;;;3.60;1.27;;;;;;;;;;4966465;28;20186;-80
2022/07/02 10:38:41;;;;;;;1.43;0.97;;;;;;;;;;4969642;28;20244;-79
2022/07/02 10:41:09;;;;;;;1.83;0.90;;;;;;;;;;4970577;28;20200;-79
2022/07/02 10:43:36;;;;;;;2.77;0.90;;;;;;;;;;4970207;28;20204;-79
2022/07/02 10:46:04;;;;;;;3.53;1.40;;;;;;;;;;4973262;28;20178;-79
2022/07/02 10:48:33;;;;;;;1.77;1.00;;;;;;;;;;4969817;28;20204;-79
2022/07/02 10:50:59;;;;;;;1.47;0.80;;;;;;;;;;4971935;28;20258;-80
2022/07/02 10:53:27;;;;;;;1.30;0.80;;;;;;;;;;4948380;28;20188;-73
2022/07/02 10:55:54;;;;;;;1.97;0.90;;;;;;;;;;4950594;28;20275;-73
2022/07/02 10:58:24;;;;;;;1.63;1.20;;;;;;;;;;4968001;28;20711;-74
2022/07/02 11:00:51;;;;;;;1.20;1.00;;;;;;;;;;4971033;28;20208;-76
2022/07/02 11:03:27;;;;;;;1.00;0.90;;;;;;;;;;4970503;28;20521;-77
2022/07/02 11:05:54;;;;;;;1.27;0.90;;;;;;;;;;4970024;28;20191;-76
2022/07/02 11:08:44;;;;;;;2.00;0.90;;;;;;;;;;4954712;28;20191;-77
2022/07/02 11:11:11;;;;;;;0.90;0.80;;;;;;;;;;4942446;28;20213;-75
2022/07/02 11:13:45;;;;;;;2.20;0.80;;;;;;;;;;4967947;28;20215;-75
2022/07/02 11:16:21;;;;;;;1.37;1.00;;;;;;;;;;4968712;28;20191;-74
2022/07/02 11:18:48;;;;;;;1.00;0.80;;;;;;;;;;4971567;28;20204;-75
2022/07/02 11:21:14;;;;;;;0.80;0.80;;;;;;;;;;4972284;28;20208;-75
2022/07/02 11:23:41;;;;;;;2.90;0.80;;;;;;;;;;4970025;28;20214;-75
2022/07/02 11:26:07;;;;;;;0.73;0.73;;;;;;;;;;4968919;28;20199;-76
2022/07/02 11:28:37;;;;;;;1.30;0.90;;;;;;;;;;4951829;28;20205;-76
2022/07/02 11:31:04;;;;;;;0.80;0.80;;;;;;;;;;4971244;28;20224;-76
2022/07/02 11:33:34;;;;;;;1.00;0.80;;;;;;;;;;4969691;28;20324;-76
2022/07/02 11:36:00;;;;;;;1.03;0.90;;;;;;;;;;4972525;28;20189;-74
2022/07/02 11:38:27;;;;;;;0.80;0.80;;;;;;;;;;4971595;28;20200;-73
2022/07/02 11:40:53;;;;;;;0.80;0.80;;;;;;;;;;4972203;28;20204;-79
2022/07/02 11:43:20;;;;;;;1.33;0.80;;;;;;;;;;4967048;28;20661;-74
2022/07/02 11:45:47;;;;;;;1.00;0.90;;;;;;;;;;4966681;28;20194;-74
2022/07/02 11:48:23;;;;;;;0.80;0.80;;;;;;;;;;4967676;28;20191;-74
2022/07/02 11:50:56;;;;;;;0.83;0.80;;;;;;;;;;4966787;28;20652;-74
2022/07/02 11:53:23;;;;;;;1.00;0.80;;;;;;;;;;4966006;28;20248;-72
2022/07/02 11:55:50;;;;;;;1.37;0.80;;;;;;;;;;4965777;28;20197;-72
2022/07/02 11:58:17;;;;;;;0.93;0.80;;;;;;;;;;4967745;28;20218;-72
2022/07/02 12:00:43;;;;;;;1.00;0.87;;;;;;;;;;4964798;28;20190;-72
2022/07/02 12:03:13;;;;;;;0.80;0.80;;;;;;;;;;4964751;28;20184;-72
2022/07/02 12:05:52;;;;;;;0.87;0.80;;;;;;;;;;4965825;28;20254;-71
2022/07/02 12:08:18;;;;;;;1.57;0.90;;;;;;;;;;4966390;28;20200;-71
2022/07/02 12:10:44;;;;;;;0.80;0.80;;;;;;;;;;4969389;28;20188;-73
2022/07/02 12:13:11;;;;;;;4.20;0.90;;;;;;;;;;4970421;28;20204;-73
2022/07/02 12:15:41;;;;;;;1.10;0.93;;;;;;;;;;4971204;28;20221;-72
2022/07/02 12:18:17;;;;;;;2.17;1.00;;;;;;;;;;4966777;28;20214;-74
2022/07/02 12:20:43;;;;;;;0.80;0.80;;;;;;;;;;4970906;28;20191;-73
2022/07/02 12:23:10;;;;;;;0.70;0.70;;;;;;;;;;4967564;28;20583;-74
2022/07/02 12:25:46;;;;;;;1.13;0.80;;;;;;;;;;4971209;28;20183;-74
2022/07/02 12:30:57;;;;;;;0.80;0.80;;;;;;;;;;4968427;28;20212;-76
2022/07/02 12:33:33;;;;;;;1.80;0.90;;;;;;;;;;4964322;28;20247;-76
2022/07/02 12:36:00;;;;;;;1.20;0.80;;;;;;;;;;4968911;28;20223;-76
2022/07/02 12:38:27;;;;;;;2.30;0.80;;;;;;;;;;4968560;28;20222;-76
2022/07/02 12:41:00;;;;;;;0.97;0.70;;;;;;;;;;4971864;28;20215;-76
2022/07/02 12:43:27;;;;;;;0.80;0.80;;;;;;;;;;4968559;28;20280;-76
2022/07/02 12:46:03;;;;;;;1.07;0.80;;;;;;;;;;4969319;28;20225;-78
2022/07/02 12:48:29;;;;;;;1.73;1.30;;;;;;;;;;4967058;28;20187;-77
2022/07/02 12:50:55;;;;;;;0.90;0.90;;;;;;;;;;4962600;28;20800;-75
2022/07/02 12:53:22;;;;;;;1.00;0.90;;;;;;;;;;4948633;28;21109;-73
2022/07/02 12:55:55;;;;;;;0.97;0.90;;;;;;;;;;4967324;28;20216;-73
2022/07/02 12:58:22;;;;;;;1.97;1.07;;;;;;;;;;4968912;28;20204;-74
2022/07/02 13:00:48;;;;;;;1.73;0.80;;;;;;;;;;4969174;28;20550;-75
2022/07/02 13:03:16;;;;;;;0.83;0.80;;;;;;;;;;4971124;28;20186;-74
2022/07/02 13:05:43;;;;;;;1.00;0.70;;;;;;;;;;4969775;28;20198;-73
2022/07/02 13:08:10;;;;;;;0.83;0.70;;;;;;;;;;4966887;28;20240;-74
2022/07/02 13:10:37;;;;;;;0.93;0.83;;;;;;;;;;4966940;28;20247;-73
2022/07/02 13:13:03;;;;;;;0.80;0.80;;;;;;;;;;4966278;28;20826;-74
2022/07/02 13:15:29;;;;;;;0.70;0.70;;;;;;;;;;4965669;28;20188;-74
2022/07/02 13:17:55;;;;;;;1.93;0.73;;;;;;;;;;4971438;28;20213;-75
2022/07/02 13:20:21;;;;;;;1.43;0.90;;;;;;;;;;4967364;28;20197;-73
2022/07/02 13:22:48;;;;;;;0.93;0.77;;;;;;;;;;4967657;28;20696;-73
2022/07/02 13:25:15;;;;;;;0.70;0.70;;;;;;;;;;4967186;28;20300;-73
2022/07/02 13:27:41;;;;;;;0.60;0.60;;;;;;;;;;4965453;28;20265;-73
2022/07/02 13:30:09;;;;;;;1.38;0.82;;;;;;;;;;4955102;28;20202;-73
2022/07/02 13:32:36;;;;;;;0.70;0.60;;;;;;;;;;4968207;28;20228;-73
2022/07/02 13:35:04;;;;;;;1.20;0.80;;;;;;;;;;4959278;28;20214;-73
2022/07/02 13:37:30;;;;;;;0.70;0.70;;;;;;;;;;4966725;28;20221;-73
2022/07/02 13:39:56;;;;;;;1.37;0.80;;;;;;;;;;4962175;28;20191;-73
2022/07/02 13:42:23;;;;;;;2.53;0.80;;;;;;;;;;4964148;28;20206;-73
2022/07/02 13:44:49;;;;;;;1.02;0.80;;;;;;;;;;4967316;28;20194;-73
2022/07/02 13:47:16;;;;;;;0.80;0.70;;;;;;;;;;4965061;28;20198;-73
2022/07/02 13:49:42;;;;;;;1.40;0.60;;;;;;;;;;4960010;28;20251;-73
2022/07/02 13:52:08;;;;;;;0.70;0.63;;;;;;;;;;4962912;28;20229;-73
2022/07/02 13:54:34;;;;;;;0.70;0.70;;;;;;;;;;4966938;28;20207;-74
2022/07/02 13:57:01;;;;;;;0.60;0.60;;;;;;;;;;4966578;28;20177;-74
2022/07/02 13:59:27;;;;;;;1.15;0.70;;;;;;;;;;4965367;28;20213;-74
2022/07/02 14:01:53;;;;;;;0.70;0.70;;;;;;;;;;4964666;28;20216;-74
2022/07/02 14:04:19;;;;;;;0.90;0.70;;;;;;;;;;4963130;28;20192;-74
2022/07/02 14:06:46;;;;;;;1.00;0.80;;;;;;;;;;4966064;28;20208;-74
2022/07/02 14:09:12;;;;;;;1.02;0.88;;;;;;;;;;4966807;28;20339;-74
2022/07/02 14:11:40;;;;;;;1.05;0.85;;;;;;;;;;4965169;28;20208;-74
2022/07/02 14:14:07;;;;;;;1.00;0.70;;;;;;;;;;4964177;28;20187;-74
2022/07/02 14:16:33;;;;;;;0.73;0.73;;;;;;;;;;4967197;28;20192;-73
2022/07/02 14:18:59;;;;;;;0.82;0.65;;;;;;;;;;4965742;28;20212;-73
2022/07/02 14:21:25;;;;;;;0.60;0.60;;;;;;;;;;4967427;28;20209;-73
2022/07/02 14:23:51;;;;;;;0.70;0.70;;;;;;;;;;4968993;28;20736;-73
2022/07/02 14:26:18;;;;;;;0.70;0.70;;;;;;;;;;4969077;28;20190;-73
2022/07/02 14:28:44;;;;;;;1.40;0.90;;;;;;;;;;4967689;28;20205;-73
2022/07/02 14:31:11;;;;;;;3.33;0.75;;;;;;;;;;4967340;28;20211;-74
2022/07/02 14:33:37;;;;;;;1.58;0.75;;;;;;;;;;4965047;28;20193;-74
2022/07/02 14:36:04;;;;;;;1.20;0.80;;;;;;;;;;4953937;28;20187;-75
2022/07/02 14:38:30;;;;;;;0.70;0.70;;;;;;;;;;4965668;28;20322;-75
2022/07/02 14:41:30;;;;;;;1.05;0.73;;;;;;;;;;4965132;28;20715;-73
2022/07/02 14:43:44;;;;;;;1.23;0.90;;;;;;;;;;4967302;28;20188;-74
2022/07/02 14:46:13;;;;;;;0.70;0.70;;;;;;;;;;4970573;28;20183;-73
2022/07/02 14:48:40;;;;;;;0.80;0.80;;;;;;;;;;4968300;28;20193;-73